Time,TemperatureF,DewpointF,PressureIn,WindDirection,WindDirectionDegrees,WindSpeedMPH,WindSpeedGustMPH,Humidity,HourlyPrecipIn,Conditions,Clouds,dailyrainin,SoftwareType,DateUTC
2013-06-08 00:04:00,60.8,51.1,29.76,SE,135,0.4,0.4,70,0.00,,,0.00,WUHU216HW,2013-06-08 07:04:00,
2013-06-08 00:09:00,60.8,51.1,29.76,SE,135,0.4,0.4,70,0.00,,,0.00,WUHU216HW,2013-06-08 07:09:00,
2013-06-08 00:30:00,59.9,50.9,29.75,ESE,113,0.2,0.2,72,0.00,,,0.00,WUHU216HW,2013-06-08 07:30:00,
2013-06-08 00:35:00,59.9,50.6,29.75,SE,135,0.4,0.4,71,0.00,,,0.00,WUHU216HW,2013-06-08 07:35:00,
2013-06-08 00:40:00,59.9,50.6,29.75,SE,135,0.4,0.4,71,0.00,,,0.00,WUHU216HW,2013-06-08 07:40:00,
2013-06-08 00:59:00,59.2,50.6,29.76,West,270,1.1,1.1,73,0.00,,,0.00,WUHU216HW,2013-06-08 07:59:00,
2013-06-08 01:04:00,59.2,50.6,29.76,East,90,0.4,1.1,73,0.00,,,0.00,WUHU216HW,2013-06-08 08:04:00,
2013-06-08 01:09:00,59.2,50.6,29.76,East,90,0.4,1.1,73,0.00,,,0.00,WUHU216HW,2013-06-08 08:09:00,
2013-06-08 01:30:00,58.3,50.0,29.76,SE,135,0.4,0.4,74,0.00,,,0.00,WUHU216HW,2013-06-08 08:30:00,
2013-06-08 01:35:00,58.3,50.0,29.76,SSE,158,0.7,0.7,74,0.00,,,0.00,WUHU216HW,2013-06-08 08:35:00,
2013-06-08 01:40:00,58.3,50.0,29.76,SSE,158,0.7,0.7,74,0.00,,,0.00,WUHU216HW,2013-06-08 08:40:00,
2013-06-08 01:59:00,57.4,49.5,29.76,SE,135,0.7,0.7,75,0.00,,,0.00,WUHU216HW,2013-06-08 08:59:00,
2013-06-08 02:04:00,57.4,49.5,29.76,WSW,248,1.3,1.3,75,0.00,,,0.00,WUHU216HW,2013-06-08 09:04:00,
2013-06-08 02:09:00,57.4,49.5,29.76,WSW,248,1.3,1.3,75,0.00,,,0.00,WUHU216HW,2013-06-08 09:09:00,
2013-06-08 02:30:00,56.7,49.1,29.76,SSE,158,2.2,2.2,76,0.00,,,0.00,WUHU216HW,2013-06-08 09:30:00,
2013-06-08 02:35:00,56.7,49.1,29.76,East,90,2.2,2.2,76,0.00,,,0.00,WUHU216HW,2013-06-08 09:35:00,
2013-06-08 02:40:00,56.7,49.1,29.76,East,90,2.2,2.2,76,0.00,,,0.00,WUHU216HW,2013-06-08 09:40:00,
2013-06-08 02:59:00,56.2,48.6,29.76,SE,135,1.6,1.6,76,0.00,,,0.00,WUHU216HW,2013-06-08 09:59:00,
2013-06-08 03:04:00,56.2,48.6,29.76,SE,135,1.6,1.6,76,0.00,,,0.00,WUHU216HW,2013-06-08 10:04:00,
2013-06-08 03:09:00,56.2,48.6,29.76,SE,135,1.6,1.6,76,0.00,,,0.00,WUHU216HW,2013-06-08 10:09:00,
2013-06-08 03:30:00,55.8,48.3,29.76,SE,135,2.5,2.5,76,0.00,,,0.00,WUHU216HW,2013-06-08 10:30:00,
2013-06-08 03:35:00,55.6,48.2,29.76,SE,135,3.1,3.1,76,0.00,,,0.00,WUHU216HW,2013-06-08 10:35:00,
2013-06-08 03:40:00,55.6,48.2,29.76,SE,135,3.1,3.1,76,0.00,,,0.00,WUHU216HW,2013-06-08 10:40:00,
2013-06-08 03:59:00,54.9,47.8,29.76,SSE,158,1.1,1.1,77,0.00,,,0.00,WUHU216HW,2013-06-08 10:59:00,
2013-06-08 04:04:00,55.1,48.0,29.76,SSE,158,2.2,2.2,77,0.00,,,0.00,WUHU216HW,2013-06-08 11:04:00,
2013-06-08 04:09:00,55.1,48.0,29.76,SSE,158,2.2,2.2,77,0.00,,,0.00,WUHU216HW,2013-06-08 11:09:00,
2013-06-08 04:30:00,54.4,47.0,29.76,SE,135,0.0,0.0,76,0.00,,,0.00,WUHU216HW,2013-06-08 11:30:00,
2013-06-08 04:35:00,54.4,47.0,29.76,SE,135,0.0,0.0,76,0.00,,,0.00,WUHU216HW,2013-06-08 11:35:00,
2013-06-08 04:40:00,54.4,47.0,29.76,SE,135,0.0,0.0,76,0.00,,,0.00,WUHU216HW,2013-06-08 11:40:00,
2013-06-08 04:59:00,53.8,46.8,29.76,SSE,158,0.9,0.9,77,0.00,,,0.00,WUHU216HW,2013-06-08 11:59:00,
2013-06-08 05:04:00,54.0,47.0,29.76,SSE,158,0.9,0.9,77,0.00,,,0.00,WUHU216HW,2013-06-08 12:04:00,
2013-06-08 05:09:00,54.0,47.0,29.76,SSE,158,0.9,0.9,77,0.00,,,0.00,WUHU216HW,2013-06-08 12:09:00,
2013-06-08 05:30:00,53.5,46.4,29.77,SE,135,0.7,0.7,77,0.00,,,0.00,WUHU216HW,2013-06-08 12:30:00,
2013-06-08 05:35:00,53.5,46.4,29.77,SE,135,0.4,0.7,77,0.00,,,0.00,WUHU216HW,2013-06-08 12:35:00,
2013-06-08 05:40:00,53.5,46.4,29.77,SE,135,0.4,0.7,77,0.00,,,0.00,WUHU216HW,2013-06-08 12:40:00,
2013-06-08 05:59:00,53.1,46.4,29.77,SE,135,0.4,0.4,78,0.00,,,0.00,WUHU216HW,2013-06-08 12:59:00,
2013-06-08 06:04:00,53.1,46.4,29.77,SE,135,0.4,0.4,78,0.00,,,0.00,WUHU216HW,2013-06-08 13:04:00,
2013-06-08 06:09:00,53.1,46.4,29.77,SE,135,0.4,0.4,78,0.00,,,0.00,WUHU216HW,2013-06-08 13:09:00,
2013-06-08 06:30:00,53.3,46.6,29.78,SSW,203,1.1,1.1,78,0.00,,,0.00,WUHU216HW,2013-06-08 13:30:00,
2013-06-08 06:35:00,53.3,46.6,29.78,SE,135,0.9,1.1,78,0.00,,,0.00,WUHU216HW,2013-06-08 13:35:00,
2013-06-08 06:40:00,53.3,46.6,29.78,SE,135,0.9,0.9,78,0.00,,,0.00,WUHU216HW,2013-06-08 13:40:00,
2013-06-08 06:59:00,65.5,54.3,29.78,SSE,158,0.9,0.9,67,0.00,,,0.00,WUHU216HW,2013-06-08 13:59:00,
2013-06-08 07:04:00,65.7,54.5,29.78,ESE,113,0.2,0.9,67,0.00,,,0.00,WUHU216HW,2013-06-08 14:04:00,
2013-06-08 07:09:00,65.7,54.5,29.78,ESE,113,0.2,0.9,67,0.00,,,0.00,WUHU216HW,2013-06-08 14:09:00,
2013-06-08 07:30:00,69.8,54.5,29.78,East,90,0.4,0.4,58,0.00,,,0.00,WUHU216HW,2013-06-08 14:30:00,
2013-06-08 07:35:00,69.8,54.5,29.78,East,90,0.4,0.4,58,0.00,,,0.00,WUHU216HW,2013-06-08 14:35:00,
2013-06-08 07:40:00,69.8,54.5,29.78,East,90,0.4,0.4,58,0.00,,,0.00,WUHU216HW,2013-06-08 14:40:00,
2013-06-08 07:59:00,74.2,54.9,29.78,East,90,1.3,1.3,51,0.00,,,0.00,WUHU216HW,2013-06-08 14:59:00,
2013-06-08 08:04:00,74.2,54.9,29.78,North,0,1.8,1.8,51,0.00,,,0.00,WUHU216HW,2013-06-08 15:04:00,
2013-06-08 08:09:00,74.2,54.9,29.78,North,0,1.8,1.8,51,0.00,,,0.00,WUHU216HW,2013-06-08 15:09:00,
2013-06-08 08:30:00,74.7,53.7,29.78,NNE,23,1.1,1.1,48,0.00,,,0.00,WUHU216HW,2013-06-08 15:30:00,
2013-06-08 08:35:00,74.9,53.8,29.78,NNE,23,1.1,1.1,48,0.00,,,0.00,WUHU216HW,2013-06-08 15:35:00,
2013-06-08 08:40:00,74.9,53.8,29.78,NNE,23,1.1,1.1,48,0.00,,,0.00,WUHU216HW,2013-06-08 15:40:00,
2013-06-08 08:59:00,76.0,53.6,29.78,SSE,158,1.1,1.1,46,0.00,,,0.00,WUHU216HW,2013-06-08 15:59:00,
2013-06-08 09:04:00,76.0,53.6,29.78,SSE,158,1.1,1.1,46,0.00,,,0.00,WUHU216HW,2013-06-08 16:04:00,
2013-06-08 09:09:00,76.0,53.6,29.78,SSE,158,1.1,1.1,46,0.00,,,0.00,WUHU216HW,2013-06-08 16:09:00,
2013-06-08 09:30:00,76.3,53.4,29.78,ESE,113,2.5,2.5,45,0.00,,,0.00,WUHU216HW,2013-06-08 16:30:00,
2013-06-08 09:35:00,76.3,53.4,29.78,SE,135,2.5,2.5,45,0.00,,,0.00,WUHU216HW,2013-06-08 16:35:00,
2013-06-08 09:40:00,76.3,53.4,29.78,SE,135,2.5,2.5,45,0.00,,,0.00,WUHU216HW,2013-06-08 16:40:00,
2013-06-08 09:59:00,77.0,54.6,29.78,SW,225,3.4,3.4,46,0.00,,,0.00,WUHU216HW,2013-06-08 16:59:00,
2013-06-08 10:04:00,77.0,54.0,29.78,West,270,0.9,3.6,45,0.00,,,0.00,WUHU216HW,2013-06-08 17:04:00,
2013-06-08 10:09:00,77.0,54.0,29.78,West,270,0.9,3.6,45,0.00,,,0.00,WUHU216HW,2013-06-08 17:09:00,
2013-06-08 10:30:00,75.6,51.5,29.77,NNW,338,0.4,0.4,43,0.00,,,0.00,WUHU216HW,2013-06-08 17:30:00,
2013-06-08 10:35:00,75.4,51.3,29.77,West,270,0.9,0.9,43,0.00,,,0.00,WUHU216HW,2013-06-08 17:35:00,
2013-06-08 10:40:00,75.4,51.3,29.77,West,270,0.9,0.9,43,0.00,,,0.00,WUHU216HW,2013-06-08 17:40:00,
2013-06-08 10:59:00,75.6,53.3,29.76,NNW,338,1.3,1.3,46,0.00,,,0.00,WUHU216HW,2013-06-08 17:59:00,
2013-06-08 11:04:00,75.6,52.8,29.76,South,180,0.7,1.3,45,0.00,,,0.00,WUHU216HW,2013-06-08 18:04:00,
2013-06-08 11:09:00,75.6,52.8,29.76,South,180,0.7,1.3,45,0.00,,,0.00,WUHU216HW,2013-06-08 18:09:00,
2013-06-08 11:30:00,77.8,54.0,29.76,ESE,113,1.6,1.6,44,0.00,,,0.00,WUHU216HW,2013-06-08 18:30:00,
2013-06-08 11:35:00,77.8,54.0,29.76,ESE,113,1.6,1.6,44,0.00,,,0.00,WUHU216HW,2013-06-08 18:35:00,
2013-06-08 11:40:00,77.8,54.0,29.76,ESE,113,1.6,1.6,44,0.00,,,0.00,WUHU216HW,2013-06-08 18:40:00,
2013-06-08 11:59:00,76.1,52.6,29.76,NE,45,3.6,3.6,44,0.00,,,0.00,WUHU216HW,2013-06-08 18:59:00,
2013-06-08 12:04:00,76.1,52.6,29.76,ESE,113,1.8,3.6,44,0.00,,,0.00,WUHU216HW,2013-06-08 19:04:00,
2013-06-08 12:09:00,76.1,52.6,29.76,ESE,113,1.8,3.6,44,0.00,,,0.00,WUHU216HW,2013-06-08 19:09:00,
2013-06-08 12:30:00,76.3,52.1,29.75,East,90,2.5,2.5,43,0.00,,,0.00,WUHU216HW,2013-06-08 19:30:00,
2013-06-08 12:35:00,76.3,52.1,29.75,ENE,68,3.1,3.1,43,0.00,,,0.00,WUHU216HW,2013-06-08 19:35:00,
2013-06-08 12:40:00,76.3,52.1,29.75,ENE,68,3.1,3.1,43,0.00,,,0.00,WUHU216HW,2013-06-08 19:40:00,
2013-06-08 12:59:00,75.6,49.7,29.75,North,0,1.6,1.6,40,0.00,,,0.00,WUHU216HW,2013-06-08 19:59:00,
2013-06-08 13:04:00,75.6,49.7,29.75,NNW,338,2.0,2.0,40,0.00,,,0.00,WUHU216HW,2013-06-08 20:04:00,
2013-06-08 13:09:00,75.6,49.7,29.75,NNW,338,2.0,2.0,40,0.00,,,0.00,WUHU216HW,2013-06-08 20:09:00,
2013-06-08 13:30:00,76.7,51.2,29.74,SSW,203,1.6,1.6,41,0.00,,,0.00,WUHU216HW,2013-06-08 20:30:00,
2013-06-08 13:35:00,76.7,51.2,29.74,WSW,248,1.1,1.6,41,0.00,,,0.00,WUHU216HW,2013-06-08 20:35:00,
2013-06-08 13:40:00,76.7,51.2,29.74,WSW,248,1.1,1.6,41,0.00,,,0.00,WUHU216HW,2013-06-08 20:40:00,
2013-06-08 13:59:00,76.5,50.5,29.73,ENE,68,1.6,1.6,40,0.00,,,0.00,WUHU216HW,2013-06-08 20:59:00,
2013-06-08 14:04:00,76.5,50.5,29.73,ENE,68,1.6,1.6,40,0.00,,,0.00,WUHU216HW,2013-06-08 21:04:00,
2013-06-08 14:09:00,76.5,50.5,29.73,ENE,68,1.6,1.6,40,0.00,,,0.00,WUHU216HW,2013-06-08 21:09:00,
2013-06-08 14:30:00,77.4,50.5,29.73,SE,135,2.0,2.0,39,0.00,,,0.00,WUHU216HW,2013-06-08 21:30:00,
2013-06-08 14:35:00,77.2,50.3,29.73,SE,135,1.8,2.0,39,0.00,,,0.00,WUHU216HW,2013-06-08 21:35:00,
2013-06-08 14:40:00,77.2,50.3,29.73,SE,135,1.8,1.8,39,0.00,,,0.00,WUHU216HW,2013-06-08 21:40:00,
2013-06-08 14:59:00,77.8,50.9,29.71,NNE,23,1.1,1.1,39,0.00,,,0.00,WUHU216HW,2013-06-08 21:59:00,
2013-06-08 15:04:00,77.8,50.9,29.71,SSE,158,2.5,2.5,39,0.00,,,0.00,WUHU216HW,2013-06-08 22:04:00,
2013-06-08 15:09:00,77.8,50.9,29.71,SSE,158,2.5,2.5,39,0.00,,,0.00,WUHU216HW,2013-06-08 22:09:00,
2013-06-08 15:30:00,77.8,47.0,29.70,NW,315,2.5,2.5,34,0.00,,,0.00,WUHU216HW,2013-06-08 22:30:00,
2013-06-08 15:35:00,77.9,48.0,29.70,SW,225,2.0,2.5,35,0.00,,,0.00,WUHU216HW,2013-06-08 22:35:00,
2013-06-08 15:40:00,77.9,48.0,29.70,SW,225,2.0,2.0,35,0.00,,,0.00,WUHU216HW,2013-06-08 22:40:00,
2013-06-08 15:59:00,78.8,47.2,29.70,NNW,338,1.8,1.8,33,0.00,,,0.00,WUHU216HW,2013-06-08 22:59:00,
2013-06-08 16:04:00,78.8,47.2,29.70,East,90,1.8,1.8,33,0.00,,,0.00,WUHU216HW,2013-06-08 23:04:00,
2013-06-08 16:09:00,78.8,47.2,29.70,East,90,1.8,1.8,33,0.00,,,0.00,WUHU216HW,2013-06-08 23:09:00,
2013-06-08 16:30:00,79.6,47.8,29.69,ESE,113,1.8,1.8,33,0.00,,,0.00,WUHU216HW,2013-06-08 23:30:00,
2013-06-08 16:35:00,79.6,47.8,29.69,SE,135,1.8,1.8,33,0.00,,,0.00,WUHU216HW,2013-06-08 23:35:00,
2013-06-08 16:40:00,79.6,47.8,29.69,SE,135,1.8,1.8,33,0.00,,,0.00,WUHU216HW,2013-06-08 23:40:00,
2013-06-08 16:59:00,80.1,49.1,29.68,NE,45,1.1,1.1,34,0.00,,,0.00,WUHU216HW,2013-06-08 23:59:00,
2013-06-08 17:04:00,79.9,48.9,29.68,NE,45,1.1,1.1,34,0.00,,,0.00,WUHU216HW,2013-06-09 00:04:00,
2013-06-08 17:09:00,79.9,48.9,29.68,NE,45,1.1,1.1,34,0.00,,,0.00,WUHU216HW,2013-06-09 00:09:00,
2013-06-08 17:30:00,80.3,49.2,29.68,NNW,338,1.6,1.6,34,0.00,,,0.00,WUHU216HW,2013-06-09 00:30:00,
2013-06-08 17:35:00,80.3,49.2,29.68,West,270,0.9,1.6,34,0.00,,,0.00,WUHU216HW,2013-06-09 00:35:00,
2013-06-08 17:40:00,80.3,49.2,29.68,West,270,0.9,1.6,34,0.00,,,0.00,WUHU216HW,2013-06-09 00:40:00,
2013-06-08 17:59:00,80.3,50.8,29.67,NE,45,1.1,1.1,36,0.00,,,0.00,WUHU216HW,2013-06-09 00:59:00,
2013-06-08 18:04:00,80.3,50.8,29.67,ESE,113,0.7,1.1,36,0.00,,,0.00,WUHU216HW,2013-06-09 01:04:00,
2013-06-08 18:09:00,80.3,50.8,29.67,ESE,113,0.7,0.7,36,0.00,,,0.00,WUHU216HW,2013-06-09 01:09:00,